sensor_id;sensor_type;location;lat;lon;timestamp;pressure;altitude;pressure_sealevel;temperature
79488;BMP180;68949;53.176;18.088;2023-10-08T00:00:33;100062.60;;;
79488;BMP180;68949;53.176;18.088;2023-10-08T00:03:51;100065.00;;;
79488;BMP180;68949;53.176;18.088;2023-10-08T00:06:25;100066.40;;;
79488;BMP180;68949;53.176;18.088;2023-10-08T00:08:54;100083.00;;;
79488;BMP180;68949;53.176;18.088;2023-10-08T00:11:26;100078.20;;;
79488;BMP180;68949;53.176;18.088;2023-10-08T00:13:55;100081.40;;;
79488;BMP180;68949;53.176;18.088;2023-10-08T00:16:23;100085.60;;;
79488;BMP180;68949;53.176;18.088;2023-10-08T00:18:50;100086.60;;;
79488;BMP180;68949;53.176;18.088;2023-10-08T00:21:19;100070.80;;;
79488;BMP180;68949;53.176;18.088;2023-10-08T00:23:47;100076.60;;;
79488;BMP180;68949;53.176;18.088;2023-10-08T00:26:20;100080.80;;;
79488;BMP180;68949;53.176;18.088;2023-10-08T00:29:04;100054.00;;;
79488;BMP180;68949;53.176;18.088;2023-10-08T00:31:44;100048.60;;;
79488;BMP180;68949;53.176;18.088;2023-10-08T00:34:17;100043.80;;;
79488;BMP180;68949;53.176;18.088;2023-10-08T00:36:48;100052.00;;;
79488;BMP180;68949;53.176;18.088;2023-10-08T00:39:15;100063.00;;;
79488;BMP180;68949;53.176;18.088;2023-10-08T00:41:52;100082.00;;;
79488;BMP180;68949;53.176;18.088;2023-10-08T00:44:24;100093.80;;;
79488;BMP180;68949;53.176;18.088;2023-10-08T00:46:57;100097.00;;;
79488;BMP180;68949;53.176;18.088;2023-10-08T00:49:28;100096.80;;;
79488;BMP180;68949;53.176;18.088;2023-10-08T00:52:11;100105.60;;;
79488;BMP180;68949;53.176;18.088;2023-10-08T00:54:41;100116.00;;;
79488;BMP180;68949;53.176;18.088;2023-10-08T00:57:34;100115.00;;;
79488;BMP180;68949;53.176;18.088;2023-10-08T01:00:09;100114.20;;;
79488;BMP180;68949;53.176;18.088;2023-10-08T01:02:44;100113.00;;;
79488;BMP180;68949;53.176;18.088;2023-10-08T01:05:27;100106.40;;;
79488;BMP180;68949;53.176;18.088;2023-10-08T01:08:14;100104.20;;;
79488;BMP180;68949;53.176;18.088;2023-10-08T01:11:23;100096.80;;;
79488;BMP180;68949;53.176;18.088;2023-10-08T01:14:13;100099.00;;;
79488;BMP180;68949;53.176;18.088;2023-10-08T01:16:41;100096.00;;;
79488;BMP180;68949;53.176;18.088;2023-10-08T01:19:19;100100.20;;;
79488;BMP180;68949;53.176;18.088;2023-10-08T01:21:46;100099.40;;;
79488;BMP180;68949;53.176;18.088;2023-10-08T01:24:14;100095.40;;;
79488;BMP180;68949;53.176;18.088;2023-10-08T01:26:43;100087.20;;;
79488;BMP180;68949;53.176;18.088;2023-10-08T01:29:12;100081.20;;;
79488;BMP180;68949;53.176;18.088;2023-10-08T01:31:48;100086.40;;;
79488;BMP180;68949;53.176;18.088;2023-10-08T01:34:15;100095.80;;;
79488;BMP180;68949;53.176;18.088;2023-10-08T01:36:44;100099.40;;;
79488;BMP180;68949;53.176;18.088;2023-10-08T01:39:11;100101.40;;;
79488;BMP180;68949;53.176;18.088;2023-10-08T01:41:45;100119.00;;;
79488;BMP180;68949;53.176;18.088;2023-10-08T01:44:13;100118.80;;;
79488;BMP180;68949;53.176;18.088;2023-10-08T01:46:40;100120.40;;;
79488;BMP180;68949;53.176;18.088;2023-10-08T01:49:10;100112.60;;;
79488;BMP180;68949;53.176;18.088;2023-10-08T01:51:48;100105.20;;;
79488;BMP180;68949;53.176;18.088;2023-10-08T01:54:20;100117.80;;;
79488;BMP180;68949;53.176;18.088;2023-10-08T01:56:47;100128.80;;;
79488;BMP180;68949;53.176;18.088;2023-10-08T01:59:15;100123.20;;;
79488;BMP180;68949;53.176;18.088;2023-10-08T02:01:44;100124.00;;;
79488;BMP180;68949;53.176;18.088;2023-10-08T02:04:11;100129.60;;;
79488;BMP180;68949;53.176;18.088;2023-10-08T02:06:39;100135.20;;;
79488;BMP180;68949;53.176;18.088;2023-10-08T02:09:08;100112.80;;;
79488;BMP180;68949;53.176;18.088;2023-10-08T02:11:48;100121.00;;;
79488;BMP180;68949;53.176;18.088;2023-10-08T02:14:17;100134.40;;;
79488;BMP180;68949;53.176;18.088;2023-10-08T02:16:45;100137.60;;;
79488;BMP180;68949;53.176;18.088;2023-10-08T02:19:12;100137.80;;;
79488;BMP180;68949;53.176;18.088;2023-10-08T02:21:40;100135.60;;;
79488;BMP180;68949;53.176;18.088;2023-10-08T02:24:07;100117.60;;;
79488;BMP180;68949;53.176;18.088;2023-10-08T02:26:35;100118.80;;;
79488;BMP180;68949;53.176;18.088;2023-10-08T02:29:02;100141.20;;;
79488;BMP180;68949;53.176;18.088;2023-10-08T02:31:32;100148.40;;;
79488;BMP180;68949;53.176;18.088;2023-10-08T02:33:59;100143.00;;;
79488;BMP180;68949;53.176;18.088;2023-10-08T02:36:26;100157.20;;;
79488;BMP180;68949;53.176;18.088;2023-10-08T02:38:53;100155.20;;;
79488;BMP180;68949;53.176;18.088;2023-10-08T02:41:21;100156.20;;;
79488;BMP180;68949;53.176;18.088;2023-10-08T02:43:50;100151.00;;;
79488;BMP180;68949;53.176;18.088;2023-10-08T02:46:18;100157.00;;;
79488;BMP180;68949;53.176;18.088;2023-10-08T02:48:45;100166.00;;;
79488;BMP180;68949;53.176;18.088;2023-10-08T02:51:13;100173.20;;;
79488;BMP180;68949;53.176;18.088;2023-10-08T02:53:42;100170.40;;;
79488;BMP180;68949;53.176;18.088;2023-10-08T02:56:10;100168.40;;;
79488;BMP180;68949;53.176;18.088;2023-10-08T02:58:40;100185.20;;;
79488;BMP180;68949;53.176;18.088;2023-10-08T03:01:07;100158.20;;;
79488;BMP180;68949;53.176;18.088;2023-10-08T03:03:42;100172.80;;;
79488;BMP180;68949;53.176;18.088;2023-10-08T03:06:09;100164.80;;;
79488;BMP180;68949;53.176;18.088;2023-10-08T03:08:38;100181.20;;;
79488;BMP180;68949;53.176;18.088;2023-10-08T03:11:10;100171.20;;;
79488;BMP180;68949;53.176;18.088;2023-10-08T03:13:45;100178.80;;;
79488;BMP180;68949;53.176;18.088;2023-10-08T03:16:18;100172.40;;;
79488;BMP180;68949;53.176;18.088;2023-10-08T03:18:54;100181.00;;;
79488;BMP180;68949;53.176;18.088;2023-10-08T03:21:23;100202.00;;;
79488;BMP180;68949;53.176;18.088;2023-10-08T03:24:05;100206.00;;;
79488;BMP180;68949;53.176;18.088;2023-10-08T03:26:51;100207.00;;;
79488;BMP180;68949;53.176;18.088;2023-10-08T03:29:22;100201.20;;;
79488;BMP180;68949;53.176;18.088;2023-10-08T03:31:57;100198.00;;;
79488;BMP180;68949;53.176;18.088;2023-10-08T03:34:24;100206.20;;;
79488;BMP180;68949;53.176;18.088;2023-10-08T03:36:55;100202.40;;;
79488;BMP180;68949;53.176;18.088;2023-10-08T03:39:26;100200.40;;;
79488;BMP180;68949;53.176;18.088;2023-10-08T03:42:13;100212.00;;;
79488;BMP180;68949;53.176;18.088;2023-10-08T03:44:46;100213.00;;;
79488;BMP180;68949;53.176;18.088;2023-10-08T03:47:24;100205.40;;;
79488;BMP180;68949;53.176;18.088;2023-10-08T03:49:53;100212.60;;;
79488;BMP180;68949;53.176;18.088;2023-10-08T03:52:20;100208.20;;;
79488;BMP180;68949;53.176;18.088;2023-10-08T03:54:50;100216.20;;;
79488;BMP180;68949;53.176;18.088;2023-10-08T03:57:31;100229.00;;;
79488;BMP180;68949;53.176;18.088;2023-10-08T04:00:11;100239.00;;;
79488;BMP180;68949;53.176;18.088;2023-10-08T04:02:45;100238.40;;;
79488;BMP180;68949;53.176;18.088;2023-10-08T04:05:36;100229.20;;;
79488;BMP180;68949;53.176;18.088;2023-10-08T04:08:21;100228.60;;;
79488;BMP180;68949;53.176;18.088;2023-10-08T04:11:06;100236.80;;;
79488;BMP180;68949;53.176;18.088;2023-10-08T04:13:56;100232.40;;;
79488;BMP180;68949;53.176;18.088;2023-10-08T04:16:26;100240.40;;;
79488;BMP180;68949;53.176;18.088;2023-10-08T04:18:55;100244.60;;;
79488;BMP180;68949;53.176;18.088;2023-10-08T04:21:23;100253.40;;;
79488;BMP180;68949;53.176;18.088;2023-10-08T04:23:56;100258.20;;;
79488;BMP180;68949;53.176;18.088;2023-10-08T04:26:24;100266.40;;;
79488;BMP180;68949;53.176;18.088;2023-10-08T04:28:55;100266.40;;;
79488;BMP180;68949;53.176;18.088;2023-10-08T04:31:24;100267.40;;;
79488;BMP180;68949;53.176;18.088;2023-10-08T04:33:55;100263.00;;;
79488;BMP180;68949;53.176;18.088;2023-10-08T04:36:27;100267.00;;;
79488;BMP180;68949;53.176;18.088;2023-10-08T04:38:53;100275.80;;;
79488;BMP180;68949;53.176;18.088;2023-10-08T04:41:22;100282.20;;;
79488;BMP180;68949;53.176;18.088;2023-10-08T04:43:54;100288.60;;;
79488;BMP180;68949;53.176;18.088;2023-10-08T04:46:22;100295.20;;;
79488;BMP180;68949;53.176;18.088;2023-10-08T04:49:16;100310.80;;;
79488;BMP180;68949;53.176;18.088;2023-10-08T04:52:01;100313.00;;;
79488;BMP180;68949;53.176;18.088;2023-10-08T04:54:31;100321.60;;;
79488;BMP180;68949;53.176;18.088;2023-10-08T04:57:00;100319.60;;;
79488;BMP180;68949;53.176;18.088;2023-10-08T04:59:28;100331.80;;;
79488;BMP180;68949;53.176;18.088;2023-10-08T05:02:04;100334.00;;;
79488;BMP180;68949;53.176;18.088;2023-10-08T05:04:40;100332.60;;;
79488;BMP180;68949;53.176;18.088;2023-10-08T05:07:19;100349.40;;;
79488;BMP180;68949;53.176;18.088;2023-10-08T05:10:05;100353.40;;;
79488;BMP180;68949;53.176;18.088;2023-10-08T05:12:34;100353.80;;;
79488;BMP180;68949;53.176;18.088;2023-10-08T05:15:05;100365.00;;;
79488;BMP180;68949;53.176;18.088;2023-10-08T05:17:46;100376.20;;;
79488;BMP180;68949;53.176;18.088;2023-10-08T05:20:21;100379.60;;;
79488;BMP180;68949;53.176;18.088;2023-10-08T05:23:10;100388.40;;;
79488;BMP180;68949;53.176;18.088;2023-10-08T05:25:48;100395.80;;;
79488;BMP180;68949;53.176;18.088;2023-10-08T05:28:34;100395.60;;;
79488;BMP180;68949;53.176;18.088;2023-10-08T05:31:25;100399.60;;;
79488;BMP180;68949;53.176;18.088;2023-10-08T05:34:10;100405.80;;;
79488;BMP180;68949;53.176;18.088;2023-10-08T05:36:49;100414.40;;;
79488;BMP180;68949;53.176;18.088;2023-10-08T05:39:17;100429.00;;;
79488;BMP180;68949;53.176;18.088;2023-10-08T05:42:19;100437.00;;;
79488;BMP180;68949;53.176;18.088;2023-10-08T05:44:55;100446.20;;;
79488;BMP180;68949;53.176;18.088;2023-10-08T05:47:37;100450.00;;;
79488;BMP180;68949;53.176;18.088;2023-10-08T05:50:05;100455.80;;;
79488;BMP180;68949;53.176;18.088;2023-10-08T05:52:47;100459.60;;;
79488;BMP180;68949;53.176;18.088;2023-10-08T05:55:19;100466.00;;;
79488;BMP180;68949;53.176;18.088;2023-10-08T05:58:04;100465.60;;;
79488;BMP180;68949;53.176;18.088;2023-10-08T06:00:43;100465.20;;;
79488;BMP180;68949;53.176;18.088;2023-10-08T06:03:32;100473.40;;;
79488;BMP180;68949;53.176;18.088;2023-10-08T06:06:04;100474.20;;;
79488;BMP180;68949;53.176;18.088;2023-10-08T06:08:38;100474.20;;;
79488;BMP180;68949;53.176;18.088;2023-10-08T06:11:24;100482.60;;;
79488;BMP180;68949;53.176;18.088;2023-10-08T06:14:08;100483.80;;;
79488;BMP180;68949;53.176;18.088;2023-10-08T06:16:44;100487.40;;;
79488;BMP180;68949;53.176;18.088;2023-10-08T06:19:14;100477.60;;;
79488;BMP180;68949;53.176;18.088;2023-10-08T06:21:42;100475.80;;;
79488;BMP180;68949;53.176;18.088;2023-10-08T06:24:09;100483.60;;;
79488;BMP180;68949;53.176;18.088;2023-10-08T06:26:38;100478.40;;;
79488;BMP180;68949;53.176;18.088;2023-10-08T06:29:26;100481.40;;;
79488;BMP180;68949;53.176;18.088;2023-10-08T06:31:58;100482.60;;;
79488;BMP180;68949;53.176;18.088;2023-10-08T06:34:29;100482.60;;;
79488;BMP180;68949;53.176;18.088;2023-10-08T06:36:59;100475.00;;;
79488;BMP180;68949;53.176;18.088;2023-10-08T06:39:26;100487.60;;;
79488;BMP180;68949;53.176;18.088;2023-10-08T06:42:00;100483.00;;;
79488;BMP180;68949;53.176;18.088;2023-10-08T06:44:30;100502.20;;;
79488;BMP180;68949;53.176;18.088;2023-10-08T06:46:57;100496.00;;;
79488;BMP180;68949;53.176;18.088;2023-10-08T06:49:24;100504.00;;;
79488;BMP180;68949;53.176;18.088;2023-10-08T06:51:51;100481.60;;;
79488;BMP180;68949;53.176;18.088;2023-10-08T06:54:18;100491.20;;;
79488;BMP180;68949;53.176;18.088;2023-10-08T06:56:46;100481.40;;;
79488;BMP180;68949;53.176;18.088;2023-10-08T06:59:19;100483.80;;;
79488;BMP180;68949;53.176;18.088;2023-10-08T07:01:49;100476.20;;;
79488;BMP180;68949;53.176;18.088;2023-10-08T07:04:18;100494.40;;;
79488;BMP180;68949;53.176;18.088;2023-10-08T07:06:45;100486.60;;;
79488;BMP180;68949;53.176;18.088;2023-10-08T07:09:17;100494.00;;;
79488;BMP180;68949;53.176;18.088;2023-10-08T07:11:57;100474.80;;;
79488;BMP180;68949;53.176;18.088;2023-10-08T07:14:28;100476.60;;;
79488;BMP180;68949;53.176;18.088;2023-10-08T07:16:59;100487.60;;;
79488;BMP180;68949;53.176;18.088;2023-10-08T08:31:29;100533.20;;;
79488;BMP180;68949;53.176;18.088;2023-10-08T08:34:03;100527.40;;;
79488;BMP180;68949;53.176;18.088;2023-10-08T08:36:34;100526.80;;;
79488;BMP180;68949;53.176;18.088;2023-10-08T08:39:05;100531.20;;;
79488;BMP180;68949;53.176;18.088;2023-10-08T08:41:38;100533.60;;;
79488;BMP180;68949;53.176;18.088;2023-10-08T08:44:06;100548.80;;;
79488;BMP180;68949;53.176;18.088;2023-10-08T08:46:37;100540.80;;;
79488;BMP180;68949;53.176;18.088;2023-10-08T08:49:06;100568.00;;;
79488;BMP180;68949;53.176;18.088;2023-10-08T08:51:38;100555.60;;;
79488;BMP180;68949;53.176;18.088;2023-10-08T08:54:05;100542.40;;;
79488;BMP180;68949;53.176;18.088;2023-10-08T08:56:40;100552.80;;;
79488;BMP180;68949;53.176;18.088;2023-10-08T08:59:07;100556.40;;;
79488;BMP180;68949;53.176;18.088;2023-10-08T09:01:42;100552.00;;;
79488;BMP180;68949;53.176;18.088;2023-10-08T09:04:10;100565.60;;;
79488;BMP180;68949;53.176;18.088;2023-10-08T09:06:37;100558.60;;;
79488;BMP180;68949;53.176;18.088;2023-10-08T09:09:05;100592.60;;;
79488;BMP180;68949;53.176;18.088;2023-10-08T09:11:51;100547.80;;;
79488;BMP180;68949;53.176;18.088;2023-10-08T09:14:26;100555.20;;;
79488;BMP180;68949;53.176;18.088;2023-10-08T09:16:53;100564.60;;;
79488;BMP180;68949;53.176;18.088;2023-10-08T09:19:24;100561.00;;;
79488;BMP180;68949;53.176;18.088;2023-10-08T09:22:07;100560.20;;;
79488;BMP180;68949;53.176;18.088;2023-10-08T09:24:36;100567.00;;;
79488;BMP180;68949;53.176;18.088;2023-10-08T09:27:08;100578.40;;;
79488;BMP180;68949;53.176;18.088;2023-10-08T09:29:35;100553.20;;;
79488;BMP180;68949;53.176;18.088;2023-10-08T09:32:10;100541.20;;;
79488;BMP180;68949;53.176;18.088;2023-10-08T09:34:37;100549.40;;;
79488;BMP180;68949;53.176;18.088;2023-10-08T09:37:03;100556.20;;;
79488;BMP180;68949;53.176;18.088;2023-10-08T09:39:31;100539.20;;;
79488;BMP180;68949;53.176;18.088;2023-10-08T09:42:03;100551.00;;;
79488;BMP180;68949;53.176;18.088;2023-10-08T09:44:30;100536.40;;;
79488;BMP180;68949;53.176;18.088;2023-10-08T09:47:07;100554.20;;;
79488;BMP180;68949;53.176;18.088;2023-10-08T09:49:40;100544.60;;;
79488;BMP180;68949;53.176;18.088;2023-10-08T09:52:12;100525.60;;;
79488;BMP180;68949;53.176;18.088;2023-10-08T09:55:04;100552.60;;;
79488;BMP180;68949;53.176;18.088;2023-10-08T09:57:37;100562.80;;;
79488;BMP180;68949;53.176;18.088;2023-10-08T10:00:07;100565.80;;;
79488;BMP180;68949;53.176;18.088;2023-10-08T10:02:42;100551.80;;;
79488;BMP180;68949;53.176;18.088;2023-10-08T10:05:19;100555.60;;;
79488;BMP180;68949;53.176;18.088;2023-10-08T10:07:48;100564.20;;;
79488;BMP180;68949;53.176;18.088;2023-10-08T10:10:32;100572.20;;;
79488;BMP180;68949;53.176;18.088;2023-10-08T10:13:06;100565.40;;;
79488;BMP180;68949;53.176;18.088;2023-10-08T10:15:37;100581.20;;;
79488;BMP180;68949;53.176;18.088;2023-10-08T10:18:15;100577.00;;;
79488;BMP180;68949;53.176;18.088;2023-10-08T10:20:51;100587.40;;;
79488;BMP180;68949;53.176;18.088;2023-10-08T10:23:42;100596.80;;;
79488;BMP180;68949;53.176;18.088;2023-10-08T10:31:39;100616.80;;;
79488;BMP180;68949;53.176;18.088;2023-10-08T10:34:11;100598.00;;;
79488;BMP180;68949;53.176;18.088;2023-10-08T10:36:40;100573.00;;;
79488;BMP180;68949;53.176;18.088;2023-10-08T10:39:10;100557.60;;;
79488;BMP180;68949;53.176;18.088;2023-10-08T10:41:48;100560.40;;;
79488;BMP180;68949;53.176;18.088;2023-10-08T10:44:15;100537.20;;;
79488;BMP180;68949;53.176;18.088;2023-10-08T10:46:44;100531.20;;;
79488;BMP180;68949;53.176;18.088;2023-10-08T10:49:18;100534.60;;;
79488;BMP180;68949;53.176;18.088;2023-10-08T10:51:50;100562.40;;;
79488;BMP180;68949;53.176;18.088;2023-10-08T10:54:26;100542.20;;;
79488;BMP180;68949;53.176;18.088;2023-10-08T10:57:02;100553.60;;;
79488;BMP180;68949;53.176;18.088;2023-10-08T10:59:35;100554.00;;;
79488;BMP180;68949;53.176;18.088;2023-10-08T11:02:05;100577.40;;;
79488;BMP180;68949;53.176;18.088;2023-10-08T11:04:35;100602.40;;;
79488;BMP180;68949;53.176;18.088;2023-10-08T11:07:20;100608.60;;;
79488;BMP180;68949;53.176;18.088;2023-10-08T11:09:48;100609.60;;;
79488;BMP180;68949;53.176;18.088;2023-10-08T11:12:15;100579.00;;;
79488;BMP180;68949;53.176;18.088;2023-10-08T11:14:49;100575.20;;;
79488;BMP180;68949;53.176;18.088;2023-10-08T11:17:25;100556.60;;;
79488;BMP180;68949;53.176;18.088;2023-10-08T11:19:52;100562.00;;;
79488;BMP180;68949;53.176;18.088;2023-10-08T11:22:20;100540.00;;;
79488;BMP180;68949;53.176;18.088;2023-10-08T11:24:49;100526.80;;;
79488;BMP180;68949;53.176;18.088;2023-10-08T11:27:20;100544.60;;;
79488;BMP180;68949;53.176;18.088;2023-10-08T11:29:56;100535.60;;;
79488;BMP180;68949;53.176;18.088;2023-10-08T11:32:25;100545.20;;;
79488;BMP180;68949;53.176;18.088;2023-10-08T11:34:57;100542.00;;;
79488;BMP180;68949;53.176;18.088;2023-10-08T11:37:31;100535.20;;;
79488;BMP180;68949;53.176;18.088;2023-10-08T11:40:02;100538.60;;;
79488;BMP180;68949;53.176;18.088;2023-10-08T11:42:41;100542.40;;;
79488;BMP180;68949;53.176;18.088;2023-10-08T11:45:11;100524.00;;;
79488;BMP180;68949;53.176;18.088;2023-10-08T11:48:05;100516.20;;;
79488;BMP180;68949;53.176;18.088;2023-10-08T11:50:38;100525.20;;;
79488;BMP180;68949;53.176;18.088;2023-10-08T11:53:05;100521.60;;;
79488;BMP180;68949;53.176;18.088;2023-10-08T11:55:35;100547.20;;;
79488;BMP180;68949;53.176;18.088;2023-10-08T11:58:07;100547.80;;;
79488;BMP180;68949;53.176;18.088;2023-10-08T12:00:42;100533.80;;;
79488;BMP180;68949;53.176;18.088;2023-10-08T12:03:16;100535.80;;;
79488;BMP180;68949;53.176;18.088;2023-10-08T12:05:46;100554.00;;;
79488;BMP180;68949;53.176;18.088;2023-10-08T12:08:19;100538.40;;;
79488;BMP180;68949;53.176;18.088;2023-10-08T12:10:49;100522.60;;;
79488;BMP180;68949;53.176;18.088;2023-10-08T12:13:21;100528.80;;;
79488;BMP180;68949;53.176;18.088;2023-10-08T12:15:54;100529.00;;;
79488;BMP180;68949;53.176;18.088;2023-10-08T12:18:34;100547.40;;;
79488;BMP180;68949;53.176;18.088;2023-10-08T12:21:06;100532.80;;;
79488;BMP180;68949;53.176;18.088;2023-10-08T12:23:38;100547.00;;;
79488;BMP180;68949;53.176;18.088;2023-10-08T12:26:04;100540.20;;;
79488;BMP180;68949;53.176;18.088;2023-10-08T12:28:34;100537.20;;;
79488;BMP180;68949;53.176;18.088;2023-10-08T12:31:01;100533.60;;;
79488;BMP180;68949;53.176;18.088;2023-10-08T12:33:27;100544.00;;;
79488;BMP180;68949;53.176;18.088;2023-10-08T12:35:56;100538.60;;;
79488;BMP180;68949;53.176;18.088;2023-10-08T12:38:25;100552.40;;;
79488;BMP180;68949;53.176;18.088;2023-10-08T12:40:54;100549.40;;;
79488;BMP180;68949;53.176;18.088;2023-10-08T12:43:23;100550.80;;;
79488;BMP180;68949;53.176;18.088;2023-10-08T12:45:54;100553.20;;;
79488;BMP180;68949;53.176;18.088;2023-10-08T12:48:25;100556.40;;;
79488;BMP180;68949;53.176;18.088;2023-10-08T12:50:55;100551.60;;;
79488;BMP180;68949;53.176;18.088;2023-10-08T12:53:29;100554.20;;;
79488;BMP180;68949;53.176;18.088;2023-10-08T12:56:05;100574.80;;;
79488;BMP180;68949;53.176;18.088;2023-10-08T12:58:35;100573.80;;;
79488;BMP180;68949;53.176;18.088;2023-10-08T13:01:08;100571.00;;;
79488;BMP180;68949;53.176;18.088;2023-10-08T13:03:37;100573.20;;;
79488;BMP180;68949;53.176;18.088;2023-10-08T13:06:19;100588.60;;;
79488;BMP180;68949;53.176;18.088;2023-10-08T13:08:52;100569.00;;;
79488;BMP180;68949;53.176;18.088;2023-10-08T13:11:21;100565.80;;;
79488;BMP180;68949;53.176;18.088;2023-10-08T13:13:50;100594.00;;;
79488;BMP180;68949;53.176;18.088;2023-10-08T13:16:19;100593.00;;;
79488;BMP180;68949;53.176;18.088;2023-10-08T13:18:51;100572.40;;;
79488;BMP180;68949;53.176;18.088;2023-10-08T13:21:18;100580.60;;;
79488;BMP180;68949;53.176;18.088;2023-10-08T13:23:52;100582.60;;;
79488;BMP180;68949;53.176;18.088;2023-10-08T13:26:19;100575.00;;;
79488;BMP180;68949;53.176;18.088;2023-10-08T13:28:49;100568.00;;;
79488;BMP180;68949;53.176;18.088;2023-10-08T13:31:16;100580.80;;;
79488;BMP180;68949;53.176;18.088;2023-10-08T13:33:45;100592.00;;;
79488;BMP180;68949;53.176;18.088;2023-10-08T13:36:15;100593.60;;;
79488;BMP180;68949;53.176;18.088;2023-10-08T13:38:43;100602.20;;;
79488;BMP180;68949;53.176;18.088;2023-10-08T13:41:13;100621.00;;;
79488;BMP180;68949;53.176;18.088;2023-10-08T13:43:45;100619.80;;;
79488;BMP180;68949;53.176;18.088;2023-10-08T13:46:17;100610.20;;;
79488;BMP180;68949;53.176;18.088;2023-10-08T13:48:46;100620.80;;;
79488;BMP180;68949;53.176;18.088;2023-10-08T13:51:19;100603.00;;;
79488;BMP180;68949;53.176;18.088;2023-10-08T13:53:55;100602.20;;;
79488;BMP180;68949;53.176;18.088;2023-10-08T13:56:33;100608.80;;;
79488;BMP180;68949;53.176;18.088;2023-10-08T13:59:00;100598.00;;;
79488;BMP180;68949;53.176;18.088;2023-10-08T14:01:32;100596.00;;;
79488;BMP180;68949;53.176;18.088;2023-10-08T14:04:01;100595.40;;;
79488;BMP180;68949;53.176;18.088;2023-10-08T14:06:33;100595.80;;;
79488;BMP180;68949;53.176;18.088;2023-10-08T14:09:04;100591.60;;;
79488;BMP180;68949;53.176;18.088;2023-10-08T14:11:35;100599.40;;;
79488;BMP180;68949;53.176;18.088;2023-10-08T14:14:02;100601.00;;;
79488;BMP180;68949;53.176;18.088;2023-10-08T14:16:38;100604.80;;;
79488;BMP180;68949;53.176;18.088;2023-10-08T14:19:12;100619.60;;;
79488;BMP180;68949;53.176;18.088;2023-10-08T14:21:41;100606.80;;;
79488;BMP180;68949;53.176;18.088;2023-10-08T14:24:31;100612.20;;;
79488;BMP180;68949;53.176;18.088;2023-10-08T14:27:02;100615.20;;;
79488;BMP180;68949;53.176;18.088;2023-10-08T14:29:29;100596.00;;;
79488;BMP180;68949;53.176;18.088;2023-10-08T14:31:56;100602.00;;;
79488;BMP180;68949;53.176;18.088;2023-10-08T14:34:23;100607.00;;;
79488;BMP180;68949;53.176;18.088;2023-10-08T14:37:10;100604.40;;;
79488;BMP180;68949;53.176;18.088;2023-10-08T14:39:55;100608.60;;;
79488;BMP180;68949;53.176;18.088;2023-10-08T14:42:41;100624.60;;;
79488;BMP180;68949;53.176;18.088;2023-10-08T14:45:23;100628.00;;;
79488;BMP180;68949;53.176;18.088;2023-10-08T14:47:57;100627.80;;;
79488;BMP180;68949;53.176;18.088;2023-10-08T14:50:25;100634.00;;;
79488;BMP180;68949;53.176;18.088;2023-10-08T14:52:59;100633.60;;;
79488;BMP180;68949;53.176;18.088;2023-10-08T14:55:32;100642.40;;;
79488;BMP180;68949;53.176;18.088;2023-10-08T14:58:04;100651.00;;;
79488;BMP180;68949;53.176;18.088;2023-10-08T15:00:35;100649.00;;;
79488;BMP180;68949;53.176;18.088;2023-10-08T15:03:02;100657.40;;;
79488;BMP180;68949;53.176;18.088;2023-10-08T15:05:30;100668.80;;;
79488;BMP180;68949;53.176;18.088;2023-10-08T15:07:58;100674.60;;;
79488;BMP180;68949;53.176;18.088;2023-10-08T15:10:25;100679.80;;;
79488;BMP180;68949;53.176;18.088;2023-10-08T15:12:52;100668.80;;;
79488;BMP180;68949;53.176;18.088;2023-10-08T15:15:20;100679.20;;;
79488;BMP180;68949;53.176;18.088;2023-10-08T15:17:51;100683.00;;;
79488;BMP180;68949;53.176;18.088;2023-10-08T15:20:18;100688.00;;;
79488;BMP180;68949;53.176;18.088;2023-10-08T15:22:48;100691.00;;;
79488;BMP180;68949;53.176;18.088;2023-10-08T15:25:17;100693.80;;;
79488;BMP180;68949;53.176;18.088;2023-10-08T15:27:45;100715.00;;;
79488;BMP180;68949;53.176;18.088;2023-10-08T15:30:17;100724.00;;;
79488;BMP180;68949;53.176;18.088;2023-10-08T15:32:49;100735.60;;;
79488;BMP180;68949;53.176;18.088;2023-10-08T15:35:18;100739.60;;;
79488;BMP180;68949;53.176;18.088;2023-10-08T15:37:51;100743.80;;;
79488;BMP180;68949;53.176;18.088;2023-10-08T15:40:18;100752.00;;;
79488;BMP180;68949;53.176;18.088;2023-10-08T15:42:54;100757.40;;;
79488;BMP180;68949;53.176;18.088;2023-10-08T15:45:24;100758.20;;;
79488;BMP180;68949;53.176;18.088;2023-10-08T15:47:52;100759.60;;;
79488;BMP180;68949;53.176;18.088;2023-10-08T15:50:19;100761.80;;;
79488;BMP180;68949;53.176;18.088;2023-10-08T15:52:51;100770.60;;;
79488;BMP180;68949;53.176;18.088;2023-10-08T15:55:17;100776.20;;;
79488;BMP180;68949;53.176;18.088;2023-10-08T15:57:45;100784.40;;;
79488;BMP180;68949;53.176;18.088;2023-10-08T16:00:12;100783.80;;;
79488;BMP180;68949;53.176;18.088;2023-10-08T16:02:40;100785.00;;;
79488;BMP180;68949;53.176;18.088;2023-10-08T16:05:07;100794.60;;;
79488;BMP180;68949;53.176;18.088;2023-10-08T16:07:34;100796.60;;;
79488;BMP180;68949;53.176;18.088;2023-10-08T16:10:01;100797.00;;;
79488;BMP180;68949;53.176;18.088;2023-10-08T16:12:28;100800.00;;;
79488;BMP180;68949;53.176;18.088;2023-10-08T16:14:55;100809.00;;;
79488;BMP180;68949;53.176;18.088;2023-10-08T16:17:21;100807.80;;;
79488;BMP180;68949;53.176;18.088;2023-10-08T16:19:50;100807.80;;;
79488;BMP180;68949;53.176;18.088;2023-10-08T16:22:17;100812.00;;;
79488;BMP180;68949;53.176;18.088;2023-10-08T16:24:44;100820.80;;;
79488;BMP180;68949;53.176;18.088;2023-10-08T16:27:11;100820.20;;;
79488;BMP180;68949;53.176;18.088;2023-10-08T16:29:38;100827.40;;;
79488;BMP180;68949;53.176;18.088;2023-10-08T16:32:05;100830.60;;;
79488;BMP180;68949;53.176;18.088;2023-10-08T16:34:33;100836.20;;;
79488;BMP180;68949;53.176;18.088;2023-10-08T16:37:03;100846.60;;;